Time;durP1;ratioP1;P1;durP2;ratioP2;P2;SDS_P1;SDS_P2;PMS_P1;PMS_P2;Temp;Humidity;BMP_temperature;BMP_pressure;BME280_temperature;BME280_humidity;BME280_pressure;Samples;Min_cycle;Max_cycle;Signal;HPM_P1;HPM_P2
2022/11/18 00:02:36;;;;;;;0.00;0.00;;;14.60;91.80;;;;;;4191441;28;20407;-60
2022/11/18 00:05:19;;;;;;;0.00;0.00;;;14.60;91.90;;;;;;4192718;28;20510;-60
2022/11/18 00:07:59;;;;;;;0.00;0.00;;;14.60;91.80;;;;;;4192636;28;20052;-60
2022/11/18 00:10:40;;;;;;;0.00;0.00;;;14.60;91.80;;;;;;4192200;28;20055;-61
2022/11/18 00:16:19;;;;;;;0.00;0.00;;;14.50;92.00;;;;;;4181743;28;20055;-60
2022/11/18 00:19:00;;;;;;;0.00;0.00;;;14.50;91.90;;;;;;4192039;28;20129;-61
2022/11/18 00:21:43;;;;;;;0.73;0.73;;;14.50;92.00;;;;;;4192228;28;20094;-60
2022/11/18 00:24:24;;;;;;;0.13;0.13;;;14.50;92.00;;;;;;4192349;28;20400;-60
2022/11/18 00:27:04;;;;;;;0.10;0.10;;;14.50;92.30;;;;;;4192462;28;20060;-60
2022/11/18 00:29:45;;;;;;;0.00;0.00;;;14.50;91.90;;;;;;4192172;28;20050;-60
2022/11/18 00:32:28;;;;;;;0.00;0.00;;;14.50;92.00;;;;;;4192162;28;20571;-60
2022/11/18 00:35:09;;;;;;;0.57;0.47;;;14.50;92.10;;;;;;4192381;28;20056;-60
2022/11/18 00:37:51;;;;;;;;;;;14.40;92.10;;;;;;4192782;28;20182;-60
2022/11/18 00:40:32;;;;;;;0.00;0.00;;;14.40;91.80;;;;;;4192001;28;20018;-60
2022/11/18 00:43:12;;;;;;;0.00;0.00;;;14.40;91.90;;;;;;4203780;28;20129;-60
2022/11/18 00:45:53;;;;;;;0.08;0.08;;;14.40;92.40;;;;;;4207126;28;20508;-60
2022/11/18 00:48:34;;;;;;;0.00;0.00;;;14.40;92.10;;;;;;4209060;28;20050;-60
2022/11/18 00:51:18;;;;;;;0.35;0.35;;;14.40;92.20;;;;;;4206647;28;20059;-60
2022/11/18 00:54:01;;;;;;;0.10;0.10;;;14.40;92.00;;;;;;4192552;27;20126;-60
2022/11/18 00:56:42;;;;;;;0.80;0.80;;;14.40;92.10;;;;;;4208553;27;20055;-60
2022/11/18 00:59:22;;;;;;;0.38;0.38;;;14.40;92.20;;;;;;4208577;27;20157;-60
2022/11/18 01:02:03;;;;;;;1.10;1.08;;;14.30;92.10;;;;;;4200324;27;20051;-60
2022/11/18 01:04:44;;;;;;;0.25;0.25;;;14.30;92.20;;;;;;4192075;28;20063;-60
2022/11/18 01:07:25;;;;;;;0.00;0.00;;;14.30;92.30;;;;;;4191742;28;20099;-60
2022/11/18 01:10:08;;;;;;;0.00;0.00;;;14.30;92.30;;;;;;4191520;28;20059;-60
2022/11/18 01:15:49;;;;;;;0.00;0.00;;;14.30;92.30;;;;;;4208284;28;20054;-60
2022/11/18 01:18:31;;;;;;;0.05;0.05;;;14.30;92.40;;;;;;4208367;28;20411;-60
2022/11/18 01:21:12;;;;;;;0.00;0.00;;;14.30;92.40;;;;;;4207479;28;20109;-60
2022/11/18 01:23:54;;;;;;;0.40;0.40;;;14.30;92.50;;;;;;4175436;28;20056;-61
2022/11/18 01:26:36;;;;;;;0.00;0.00;;;14.30;92.40;;;;;;4175019;28;20060;-60
2022/11/18 01:29:17;;;;;;;0.00;0.00;;;14.30;92.40;;;;;;4175224;28;20512;-60
2022/11/18 01:31:58;;;;;;;0.10;0.10;;;14.30;92.40;;;;;;4190025;27;20097;-61
2022/11/18 01:34:59;;;;;;;0.00;0.00;;;14.30;92.50;;;;;;4211168;27;20125;-60
2022/11/18 01:37:39;;;;;;;0.08;0.08;;;14.30;92.30;;;;;;4211700;27;20055;-60
2022/11/18 01:40:20;;;;;;;0.10;0.10;;;14.30;92.50;;;;;;4198128;27;20059;-60
2022/11/18 01:43:05;;;;;;;0.00;0.00;;;14.20;92.60;;;;;;4192995;28;20163;-60
2022/11/18 01:45:48;;;;;;;1.05;0.95;;;14.20;92.60;;;;;;4178054;28;20610;-60
2022/11/18 01:48:31;;;;;;;0.00;0.00;;;14.30;92.60;;;;;;4178131;28;20400;-60
2022/11/18 01:51:16;;;;;;;0.08;0.08;;;14.20;92.60;;;;;;4178608;28;20044;-60
2022/11/18 01:54:02;;;;;;;0.00;0.00;;;14.20;92.60;;;;;;4193929;28;20051;-60
2022/11/18 01:56:46;;;;;;;0.00;0.00;;;14.30;92.60;;;;;;4211192;28;20054;-60
2022/11/18 01:59:33;;;;;;;0.35;0.35;;;14.30;92.60;;;;;;4211219;28;20059;-61
2022/11/18 02:02:15;;;;;;;0.05;0.05;;;14.20;92.60;;;;;;4201847;28;20074;-60
2022/11/18 02:04:57;;;;;;;0.75;0.75;;;14.20;92.60;;;;;;4194105;28;20044;-60
2022/11/18 02:07:41;;;;;;;0.00;0.00;;;14.20;92.70;;;;;;4177603;28;20064;-60
2022/11/18 02:10:24;;;;;;;0.05;0.05;;;14.20;92.70;;;;;;4174606;28;20052;-60
2022/11/18 02:13:06;;;;;;;0.43;0.43;;;14.20;92.80;;;;;;4193002;28;20129;-60
2022/11/18 02:15:53;;;;;;;;;;;14.20;92.80;;;;;;4193334;28;20055;-60
2022/11/18 02:18:41;;;;;;;0.00;0.00;;;14.20;92.70;;;;;;4194195;28;20351;-60
2022/11/18 02:21:37;;;;;;;0.38;0.38;;;14.20;92.60;;;;;;4193828;28;20062;-60
2022/11/18 02:24:36;;;;;;;0.00;0.00;;;14.20;92.70;;;;;;4177092;28;20130;-60
2022/11/18 02:27:48;;;;;;;0.10;0.10;;;14.20;92.70;;;;;;4192709;28;20523;-60
2022/11/18 02:30:34;;;;;;;2.85;2.65;;;14.20;92.80;;;;;;4193903;28;20536;-60
2022/11/18 02:33:23;;;;;;;0.17;0.17;;;14.10;92.70;;;;;;4193740;28;20059;-60
2022/11/18 02:36:10;;;;;;;0.20;0.20;;;14.20;92.80;;;;;;4193990;28;20048;-60
2022/11/18 02:38:55;;;;;;;0.00;0.00;;;14.20;92.90;;;;;;4193554;28;20155;-61
2022/11/18 02:41:39;;;;;;;0.20;0.20;;;14.30;92.80;;;;;;4193726;28;20067;-60
2022/11/18 02:44:24;;;;;;;0.00;0.00;;;14.30;92.50;;;;;;4194046;28;20533;-60
2022/11/18 02:47:10;;;;;;;0.00;0.00;;;14.40;92.40;;;;;;4193709;28;20051;-60
2022/11/18 02:49:55;;;;;;;0.05;0.05;;;14.50;92.20;;;;;;4193625;28;20063;-60
2022/11/18 02:52:38;;;;;;;0.00;0.00;;;14.50;92.10;;;;;;4197307;28;20060;-60
2022/11/18 02:55:20;;;;;;;0.00;0.00;;;14.60;92.00;;;;;;4185289;28;20060;-60
2022/11/18 02:58:02;;;;;;;1.83;0.75;;;14.60;92.00;;;;;;4182784;28;20069;-60
2022/11/18 03:00:44;;;;;;;1.65;1.30;;;14.60;91.90;;;;;;4193586;28;20048;-60
2022/11/18 03:03:29;;;;;;;0.40;0.40;;;14.60;91.90;;;;;;4193344;28;20490;-60
2022/11/18 03:06:15;;;;;;;0.00;0.00;;;14.60;91.90;;;;;;4193516;28;20055;-60
2022/11/18 03:09:07;;;;;;;0.32;0.32;;;14.60;92.00;;;;;;4193277;28;20190;-60
2022/11/18 03:11:55;;;;;;;0.00;0.00;;;14.70;91.90;;;;;;4192596;28;20071;-60
2022/11/18 03:14:44;;;;;;;0.00;0.00;;;14.70;92.10;;;;;;4209814;28;20054;-60
2022/11/18 03:17:34;;;;;;;4.85;0.80;;;14.80;91.50;;;;;;4209766;28;20055;-60
2022/11/18 03:20:22;;;;;;;0.73;0.73;;;14.90;91.30;;;;;;4202415;28;20047;-60
2022/11/18 03:23:08;;;;;;;0.00;0.00;;;14.90;91.20;;;;;;4192891;28;20380;-60
2022/11/18 03:25:53;;;;;;;0.82;0.82;;;14.90;91.20;;;;;;4193108;28;20055;-60
2022/11/18 03:28:38;;;;;;;0.30;0.30;;;14.90;91.20;;;;;;4193006;28;20052;-60
2022/11/18 03:31:24;;;;;;;0.00;0.00;;;15.00;91.20;;;;;;4192763;28;20522;-60
2022/11/18 03:34:09;;;;;;;0.20;0.20;;;15.00;91.10;;;;;;4176084;28;20125;-60
2022/11/18 03:36:55;;;;;;;0.00;0.00;;;15.10;90.90;;;;;;4176026;28;20141;-59
2022/11/18 03:39:43;;;;;;;0.00;0.00;;;15.10;90.70;;;;;;4192991;28;20117;-60
2022/11/18 03:42:27;;;;;;;0.65;0.65;;;15.10;90.60;;;;;;4202457;28;20507;-60
2022/11/18 03:45:16;;;;;;;2.17;1.10;;;15.20;90.60;;;;;;4193111;28;20129;-60
2022/11/18 03:48:03;;;;;;;1.23;0.63;;;15.20;90.60;;;;;;4199650;28;20484;-60
2022/11/18 03:50:50;;;;;;;0.00;0.00;;;15.20;90.60;;;;;;4209441;28;20490;-60
2022/11/18 03:53:36;;;;;;;0.10;0.10;;;15.10;90.50;;;;;;4192776;28;20063;-60
2022/11/18 03:56:21;;;;;;;0.35;0.30;;;15.20;90.60;;;;;;4199563;28;20116;-60
2022/11/18 03:59:08;;;;;;;0.10;0.10;;;15.10;90.50;;;;;;4209129;28;20073;-60
2022/11/18 04:01:53;;;;;;;0.00;0.00;;;15.20;90.60;;;;;;4207254;28;20509;-60
2022/11/18 04:04:34;;;;;;;0.15;0.15;;;15.20;90.50;;;;;;4192628;28;20052;-60
2022/11/18 04:07:23;;;;;;;0.00;0.00;;;15.20;90.80;;;;;;4207360;28;20066;-61
2022/11/18 04:10:13;;;;;;;0.00;0.00;;;15.20;90.30;;;;;;4198249;28;20190;-60
2022/11/18 04:13:01;;;;;;;0.13;0.13;;;15.20;90.30;;;;;;4198141;27;20062;-61
2022/11/18 04:15:45;;;;;;;;;;;15.20;90.40;;;;;;4192551;28;20106;-60
2022/11/18 04:18:27;;;;;;;0.00;0.00;;;15.20;90.80;;;;;;4198747;28;19935;-60
2022/11/18 04:21:07;;;;;;;0.13;0.13;;;15.10;90.40;;;;;;4208702;28;20537;-60
2022/11/18 04:23:48;;;;;;;0.00;0.00;;;15.10;90.50;;;;;;4175394;28;20051;-60
2022/11/18 04:26:31;;;;;;;0.03;0.03;;;15.10;90.60;;;;;;4174787;28;20154;-60
2022/11/18 04:29:12;;;;;;;0.00;0.00;;;15.10;90.60;;;;;;4175631;28;20060;-60
2022/11/18 04:31:53;;;;;;;0.00;0.00;;;15.00;91.00;;;;;;4177320;28;20404;-60
2022/11/18 04:34:34;;;;;;;0.43;0.43;;;15.00;90.80;;;;;;4192459;28;20052;-60
2022/11/18 04:37:15;;;;;;;0.10;0.10;;;15.00;90.80;;;;;;4192103;28;20051;-60
2022/11/18 04:39:56;;;;;;;0.00;0.00;;;15.10;90.70;;;;;;4192282;28;20129;-60
2022/11/18 04:42:38;;;;;;;0.00;0.00;;;15.20;90.50;;;;;;4190828;28;20055;-60
2022/11/18 04:45:19;;;;;;;0.00;0.00;;;15.30;90.40;;;;;;4191646;28;20117;-60
2022/11/18 04:48:00;;;;;;;0.38;0.38;;;15.30;90.30;;;;;;4191978;28;20055;-59
2022/11/18 04:50:43;;;;;;;0.22;0.22;;;15.30;90.20;;;;;;4200623;28;20050;-60
2022/11/18 04:53:24;;;;;;;0.68;0.68;;;15.30;90.20;;;;;;4189088;28;20090;-60
2022/11/18 04:56:06;;;;;;;0.65;0.47;;;15.30;90.20;;;;;;4192354;28;20407;-60
2022/11/18 04:58:48;;;;;;;0.10;0.10;;;15.30;90.30;;;;;;4192164;28;20047;-60
2022/11/18 05:01:29;;;;;;;0.47;0.47;;;15.20;90.30;;;;;;4175449;28;20103;-60
2022/11/18 05:04:14;;;;;;;0.00;0.00;;;15.20;90.30;;;;;;4175594;28;20060;-60
2022/11/18 05:06:54;;;;;;;0.10;0.10;;;15.20;90.40;;;;;;4178440;28;20056;-60
2022/11/18 05:09:35;;;;;;;0.35;0.35;;;15.10;90.40;;;;;;4189628;28;20411;-60
2022/11/18 05:15:16;;;;;;;0.10;0.10;;;15.10;90.60;;;;;;4194833;28;20089;-60
2022/11/18 05:17:57;;;;;;;0.00;0.00;;;15.20;90.60;;;;;;4195253;28;20060;-61
2022/11/18 05:20:38;;;;;;;0.00;0.00;;;15.20;90.80;;;;;;4207753;28;20154;-60
2022/11/18 05:23:21;;;;;;;0.00;0.00;;;15.30;90.30;;;;;;4198634;28;20125;-60
2022/11/18 05:26:03;;;;;;;0.00;0.00;;;15.30;90.20;;;;;;4194673;28;20499;-60
2022/11/18 05:28:44;;;;;;;0.30;0.30;;;15.40;90.10;;;;;;4194512;28;20329;-60
2022/11/18 05:31:26;;;;;;;0.28;0.28;;;15.40;90.00;;;;;;4177997;28;20052;-60
2022/11/18 05:34:07;;;;;;;0.43;0.38;;;15.40;89.90;;;;;;4178144;28;20052;-60
2022/11/18 05:36:48;;;;;;;0.00;0.00;;;15.40;89.90;;;;;;4178281;28;20094;-60
2022/11/18 05:39:29;;;;;;;0.00;0.00;;;15.40;89.90;;;;;;4188553;28;20067;-61
2022/11/18 05:45:10;;;;;;;0.17;0.13;;;15.40;90.00;;;;;;4193074;28;20047;-60
2022/11/18 05:48:03;;;;;;;0.00;0.00;;;15.30;90.10;;;;;;4194875;28;20122;-60
2022/11/18 05:50:46;;;;;;;0.28;0.28;;;15.30;90.10;;;;;;4178012;28;20162;-60
2022/11/18 05:53:27;;;;;;;0.00;0.00;;;15.40;90.10;;;;;;4190580;28;20059;-60
2022/11/18 05:56:18;;;;;;;1.05;1.05;;;15.40;90.00;;;;;;4194315;28;20051;-60
2022/11/18 05:58:59;;;;;;;0.75;0.75;;;15.40;90.00;;;;;;4194014;28;20063;-61
2022/11/18 06:01:43;;;;;;;0.63;0.63;;;15.40;89.90;;;;;;4194123;28;20067;-60
2022/11/18 06:04:29;;;;;;;0.00;0.00;;;15.50;90.00;;;;;;4177966;28;20091;-60
2022/11/18 06:07:14;;;;;;;0.00;0.00;;;15.50;89.90;;;;;;4177868;28;20472;-61
2022/11/18 06:09:59;;;;;;;0.00;0.00;;;15.50;89.60;;;;;;4182179;28;20117;-61
2022/11/18 06:12:49;;;;;;;0.22;0.22;;;15.50;89.50;;;;;;4178757;27;20122;-60
2022/11/18 06:15:35;;;;;;;0.38;0.38;;;15.50;90.10;;;;;;4194815;28;20050;-60
2022/11/18 06:18:20;;;;;;;0.00;0.00;;;15.50;89.60;;;;;;4189349;28;20534;-61
2022/11/18 06:21:05;;;;;;;0.80;0.40;;;15.40;89.60;;;;;;4193999;28;20552;-60
2022/11/18 06:23:46;;;;;;;0.03;0.03;;;15.30;89.60;;;;;;4193600;28;20380;-60
2022/11/18 06:26:27;;;;;;;0.22;0.22;;;15.30;89.90;;;;;;4187540;28;20063;-61
2022/11/18 06:29:12;;;;;;;0.28;0.28;;;15.20;89.90;;;;;;4193378;28;20133;-55
2022/11/18 06:31:53;;;;;;;0.90;0.38;;;15.20;90.10;;;;;;4193546;28;20063;-54
2022/11/18 06:34:33;;;;;;;0.00;0.00;;;15.10;90.10;;;;;;4177145;28;20099;-57
2022/11/18 06:37:22;;;;;;;0.00;0.00;;;15.10;90.20;;;;;;4177317;28;20056;-56
2022/11/18 06:40:04;;;;;;;0.00;0.00;;;15.00;90.20;;;;;;4187430;28;20051;-57
2022/11/18 06:46:54;;;;;;;0.00;0.00;;;15.00;90.40;;;;;;4193295;28;20052;-56
2022/11/18 06:48:48;;;;;;;0.10;0.10;;;14.90;90.40;;;;;;4183879;28;20097;-57
2022/11/18 06:51:30;;;;;;;0.10;0.10;;;14.90;90.50;;;;;;4193288;28;20222;-58
2022/11/18 06:54:12;;;;;;;0.00;0.00;;;14.80;90.50;;;;;;4192367;28;20530;-57
2022/11/18 06:56:53;;;;;;;4.50;2.75;;;14.80;90.60;;;;;;4195383;28;20051;-57
2022/11/18 06:59:33;;;;;;;0.10;0.10;;;14.80;90.70;;;;;;4210324;28;20079;-58
2022/11/18 07:02:17;;;;;;;0.43;0.25;;;14.80;90.70;;;;;;4209897;28;20125;-57
2022/11/18 07:04:58;;;;;;;0.32;0.32;;;14.90;90.60;;;;;;4204969;28;20063;-62
2022/11/18 07:07:38;;;;;;;0.00;0.00;;;14.90;90.50;;;;;;4184425;28;21331;-57
2022/11/18 07:10:23;;;;;;;0.20;0.20;;;14.90;90.40;;;;;;4192711;28;20430;-56
2022/11/18 07:13:03;;;;;;;0.00;0.00;;;14.90;90.30;;;;;;4192729;28;20060;-57
2022/11/18 07:15:44;;;;;;;0.00;0.00;;;14.90;90.30;;;;;;4205221;28;20062;-56
2022/11/18 07:18:25;;;;;;;0.00;0.00;;;14.90;90.30;;;;;;4193187;28;20502;-58
2022/11/18 07:21:08;;;;;;;0.00;0.00;;;14.90;90.30;;;;;;4176517;28;20056;-61
2022/11/18 07:23:49;;;;;;;0.20;0.20;;;14.90;90.30;;;;;;4176344;28;20187;-61
2022/11/18 07:26:32;;;;;;;0.22;0.22;;;14.90;90.70;;;;;;4176291;28;20060;-61
2022/11/18 07:29:12;;;;;;;0.95;0.95;;;14.80;90.30;;;;;;4177535;28;20078;-61
2022/11/18 07:31:53;;;;;;;0.10;0.10;;;14.80;90.80;;;;;;4192778;28;20071;-58
2022/11/18 07:34:34;;;;;;;0.52;0.52;;;14.70;90.40;;;;;;4192318;28;20059;-58
2022/11/18 07:37:16;;;;;;;4.45;2.28;;;14.70;90.40;;;;;;4192435;28;20060;-58
2022/11/18 07:39:58;;;;;;;0.00;0.00;;;14.70;90.50;;;;;;4190790;28;20052;-58
2022/11/18 07:42:42;;;;;;;0.00;0.00;;;14.70;90.50;;;;;;4192440;28;20052;-57
2022/11/18 07:45:35;;;;;;;0.00;0.00;;;14.70;90.90;;;;;;4192665;28;20051;-57
2022/11/18 07:48:16;;;;;;;0.05;0.05;;;14.60;91.00;;;;;;4192798;28;20129;-55
2022/11/18 07:51:00;;;;;;;0.00;0.00;;;14.60;91.20;;;;;;4190589;28;20051;-54
2022/11/18 07:53:42;;;;;;;0.00;0.00;;;14.70;91.10;;;;;;4193005;28;20055;-57
2022/11/18 07:56:23;;;;;;;0.80;0.80;;;14.70;91.00;;;;;;4192840;28;20052;-56
2022/11/18 07:59:06;;;;;;;0.30;0.30;;;14.80;90.90;;;;;;4192198;28;20056;-58
2022/11/18 08:01:47;;;;;;;0.00;0.00;;;14.80;90.90;;;;;;4191642;28;20055;-59
2022/11/18 08:04:28;;;;;;;0.00;0.00;;;14.80;90.80;;;;;;4192512;28;20101;-59
2022/11/18 08:07:09;;;;;;;0.17;0.17;;;14.90;90.70;;;;;;4193284;28;20067;-60
2022/11/18 08:09:50;;;;;;;;;;;14.90;90.60;;;;;;4192559;28;20055;-59
2022/11/18 08:12:31;;;;;;;0.52;0.52;;;14.90;90.60;;;;;;4192495;28;19927;-59
2022/11/18 08:15:13;;;;;;;0.00;0.00;;;15.00;90.50;;;;;;4189547;28;20058;-59
2022/11/18 08:17:54;;;;;;;0.00;0.00;;;15.00;90.30;;;;;;4186752;28;20485;-59
2022/11/18 08:20:35;;;;;;;0.95;0.63;;;15.10;90.20;;;;;;4175356;28;20136;-59
2022/11/18 08:23:16;;;;;;;0.10;0.10;;;15.20;90.10;;;;;;4174111;28;20175;-57
2022/11/18 08:26:02;;;;;;;1.77;0.77;;;15.20;90.00;;;;;;4183470;28;20564;-60
2022/11/18 08:28:44;;;;;;;0.43;0.43;;;15.20;89.80;;;;;;4191856;28;20133;-59
2022/11/18 08:31:29;;;;;;;0.15;0.15;;;15.20;89.90;;;;;;4192102;28;20051;-60
2022/11/18 08:34:11;;;;;;;0.20;0.20;;;15.20;89.80;;;;;;4186019;28;20075;-58
2022/11/18 08:36:52;;;;;;;5.00;1.75;;;15.10;89.90;;;;;;4182503;28;20052;-59
2022/11/18 08:39:33;;;;;;;0.00;0.00;;;15.10;90.00;;;;;;4181740;28;20051;-59
2022/11/18 08:42:14;;;;;;;0.55;0.55;;;15.10;90.00;;;;;;4191957;28;20056;-58
2022/11/18 08:44:55;;;;;;;0.00;0.00;;;15.00;90.10;;;;;;4191713;28;20059;-57
2022/11/18 08:47:38;;;;;;;0.00;0.00;;;15.00;90.20;;;;;;4192356;28;20166;-59
2022/11/18 08:50:19;;;;;;;0.85;0.82;;;15.00;90.20;;;;;;4191654;28;20153;-59
2022/11/18 08:53:00;;;;;;;0.13;0.13;;;14.90;90.20;;;;;;4175787;28;20051;-59
2022/11/18 08:55:41;;;;;;;0.05;0.05;;;14.90;90.30;;;;;;4159120;28;20462;-60
2022/11/18 08:58:21;;;;;;;0.20;0.20;;;14.80;90.40;;;;;;4158786;28;20068;-60
2022/11/18 09:01:05;;;;;;;14.37;2.17;;;14.80;90.40;;;;;;4158834;28;20291;-60
2022/11/18 09:03:47;;;;;;;10.15;3.40;;;14.70;90.40;;;;;;4158916;28;20287;-57
2022/11/18 09:06:29;;;;;;;1.13;0.47;;;14.70;90.40;;;;;;4164366;28;20414;-58
2022/11/18 09:09:10;;;;;;;0.08;0.08;;;14.60;90.50;;;;;;4175525;28;20048;-54
2022/11/18 09:11:51;;;;;;;0.10;0.10;;;14.60;90.90;;;;;;4175385;28;20051;-54
2022/11/18 09:14:32;;;;;;;0.00;0.00;;;14.60;90.60;;;;;;4175159;28;20555;-57
2022/11/18 09:17:33;;;;;;;0.00;0.00;;;14.50;90.80;;;;;;4174009;28;20554;-55
2022/11/18 09:20:16;;;;;;;0.00;0.00;;;14.50;90.80;;;;;;4175291;28;20052;-56
2022/11/18 09:22:57;;;;;;;0.00;0.00;;;14.50;91.30;;;;;;4175431;28;20059;-54
2022/11/18 09:25:38;;;;;;;0.55;0.55;;;14.50;91.00;;;;;;4192100;28;20109;-53
2022/11/18 09:28:19;;;;;;;0.10;0.10;;;14.40;91.00;;;;;;4178819;28;20165;-54
2022/11/18 09:31:02;;;;;;;1.05;1.05;;;14.40;91.10;;;;;;4191338;28;20368;-57
2022/11/18 09:33:43;;;;;;;0.00;0.00;;;14.40;91.10;;;;;;4190368;28;20129;-56
2022/11/18 09:36:26;;;;;;;0.95;0.95;;;14.30;91.10;;;;;;4191612;28;20044;-56
2022/11/18 09:39:07;;;;;;;0.00;0.00;;;14.30;91.20;;;;;;4191446;28;20055;-57
2022/11/18 09:41:54;;;;;;;0.00;0.00;;;14.30;91.20;;;;;;4191492;28;20056;-58
2022/11/18 09:45:01;;;;;;;0.00;0.00;;;14.30;91.20;;;;;;4191742;28;20091;-57
2022/11/18 09:47:43;;;;;;;0.00;0.00;;;14.20;90.90;;;;;;4189377;28;20067;-55
2022/11/18 09:50:24;;;;;;;0.95;0.93;;;14.20;90.70;;;;;;4191137;28;20081;-55
2022/11/18 09:53:26;;;;;;;0.00;0.00;;;14.10;89.80;;;;;;4176795;28;20056;-57
2022/11/18 09:56:13;;;;;;;0.25;0.25;;;14.10;90.00;;;;;;4186972;28;20129;-54
2022/11/18 09:58:55;;;;;;;0.03;0.03;;;14.10;90.30;;;;;;4194517;28;20095;-52
2022/11/18 10:01:36;;;;;;;0.15;0.15;;;14.10;90.70;;;;;;4193866;28;20047;-56
2022/11/18 10:04:19;;;;;;;0.70;0.70;;;14.10;90.70;;;;;;4193191;28;20106;-55
2022/11/18 10:07:05;;;;;;;1.08;1.00;;;14.20;90.70;;;;;;4195372;28;20510;-55
2022/11/18 10:09:51;;;;;;;0.10;0.10;;;14.20;90.50;;;;;;4194184;28;20055;-56
2022/11/18 10:12:37;;;;;;;0.00;0.00;;;14.20;90.50;;;;;;4194338;28;20495;-55
2022/11/18 10:15:24;;;;;;;0.00;0.00;;;14.20;90.80;;;;;;4196548;28;20405;-53
2022/11/18 10:18:20;;;;;;;2.65;2.50;;;14.30;90.50;;;;;;4193942;28;20125;-52
2022/11/18 10:21:32;;;;;;;0.20;0.20;;;14.30;90.30;;;;;;4193962;28;20055;-49
2022/11/18 10:24:18;;;;;;;0.30;0.30;;;14.40;90.40;;;;;;4201741;28;20059;-55
2022/11/18 10:27:02;;;;;;;2.05;1.95;;;14.40;90.40;;;;;;4177470;28;20051;-54
2022/11/18 10:29:45;;;;;;;1.40;1.30;;;14.50;90.40;;;;;;4176861;28;20523;-51
2022/11/18 10:32:26;;;;;;;0.35;0.35;;;14.70;90.30;;;;;;4190301;28;20051;-51
2022/11/18 10:35:24;;;;;;;0.15;0.15;;;14.70;90.00;;;;;;4210535;28;20517;-53
2022/11/18 10:38:16;;;;;;;1.98;0.70;;;14.90;89.60;;;;;;4193199;28;20541;-56
2022/11/18 10:40:59;;;;;;;1.10;1.10;;;14.90;89.30;;;;;;4176737;28;20531;-58
2022/11/18 10:43:50;;;;;;;0.43;0.43;;;14.90;89.20;;;;;;4190868;28;20071;-49
2022/11/18 10:46:33;;;;;;;0.00;0.00;;;14.90;89.20;;;;;;4210146;28;20075;-55
2022/11/18 10:49:16;;;;;;;1.55;1.08;;;14.90;89.30;;;;;;4210275;28;20505;-54
2022/11/18 10:52:09;;;;;;;1.20;1.17;;;14.90;89.40;;;;;;4193123;28;20556;-53
2022/11/18 10:55:08;;;;;;;0.57;0.57;;;14.90;89.30;;;;;;4209316;28;20712;-52
2022/11/18 10:57:53;;;;;;;0.50;0.50;;;14.90;89.20;;;;;;4209536;28;20096;-52
2022/11/18 11:00:42;;;;;;;0.00;0.00;;;14.80;89.20;;;;;;4209793;27;20054;-53
2022/11/18 11:03:34;;;;;;;0.00;0.00;;;14.80;89.30;;;;;;4208244;28;20063;-55
2022/11/18 11:06:22;;;;;;;0.20;0.20;;;14.80;89.60;;;;;;4192874;28;20055;-53
2022/11/18 11:09:06;;;;;;;0.00;0.00;;;14.80;89.60;;;;;;4193531;28;20125;-50
2022/11/18 11:11:57;;;;;;;0.10;0.10;;;14.80;89.40;;;;;;4194206;28;20055;-51
2022/11/18 11:14:49;;;;;;;0.03;0.03;;;14.80;89.30;;;;;;4192623;28;20056;-54
2022/11/18 11:17:35;;;;;;;0.00;0.00;;;14.90;89.40;;;;;;4193266;28;20086;-53
2022/11/18 11:20:20;;;;;;;1.27;1.20;;;14.90;89.30;;;;;;4192124;28;20252;-53
2022/11/18 11:23:01;;;;;;;0.10;0.10;;;15.00;89.00;;;;;;4194341;28;20498;-53
2022/11/18 11:25:49;;;;;;;0.55;0.45;;;15.00;88.90;;;;;;4193070;28;20415;-52
2022/11/18 11:28:54;;;;;;;0.35;0.35;;;15.00;88.90;;;;;;4192966;28;21246;-51
2022/11/18 11:31:46;;;;;;;0.55;0.55;;;15.00;88.80;;;;;;4176170;28;20396;-51
2022/11/18 11:34:36;;;;;;;0.15;0.15;;;14.90;88.80;;;;;;4176331;28;20473;-53
2022/11/18 11:37:25;;;;;;;1.77;1.67;;;14.90;88.90;;;;;;4176480;28;20052;-51
2022/11/18 11:40:22;;;;;;;0.30;0.30;;;14.90;89.00;;;;;;4191587;28;20164;-54
2022/11/18 11:43:27;;;;;;;0.00;0.00;;;14.80;89.00;;;;;;4209153;28;20047;-55
2022/11/18 11:46:19;;;;;;;1.13;1.13;;;14.80;89.20;;;;;;4209316;28;20051;-54
2022/11/18 11:49:13;;;;;;;2.13;2.00;;;14.80;89.30;;;;;;4209347;28;20054;-55
2022/11/18 11:52:03;;;;;;;2.15;2.05;;;14.70;89.50;;;;;;4206227;28;20047;-52
2022/11/18 11:54:53;;;;;;;23.27;1.92;;;14.70;89.70;;;;;;4192329;28;20117;-54
2022/11/18 11:57:46;;;;;;;1.52;1.45;;;14.60;89.90;;;;;;4192559;28;20182;-52
2022/11/18 12:00:27;;;;;;;1.48;1.42;;;14.50;89.90;;;;;;4192508;28;20054;-56
2022/11/18 12:03:21;;;;;;;0.10;0.10;;;14.50;90.00;;;;;;4192013;28;20052;-52
2022/11/18 12:06:01;;;;;;;40.30;3.85;;;14.50;90.10;;;;;;4174966;28;20064;-53
2022/11/18 12:08:56;;;;;;;0.00;0.00;;;14.50;90.10;;;;;;4175903;28;20051;-55
2022/11/18 12:11:44;;;;;;;0.60;0.60;;;14.40;90.20;;;;;;4175788;28;20052;-53
2022/11/18 12:14:31;;;;;;;0.35;0.35;;;14.40;90.20;;;;;;4176016;28;20183;-50
2022/11/18 12:17:22;;;;;;;0.40;0.40;;;14.30;90.30;;;;;;4191890;28;20087;-53
2022/11/18 12:20:43;;;;;;;2.15;1.48;;;14.30;90.60;;;;;;4192448;28;20047;-55
2022/11/18 12:23:26;;;;;;;1.52;1.52;;;14.40;90.60;;;;;;4192395;28;20406;-53
2022/11/18 12:26:09;;;;;;;1.50;1.38;;;14.50;90.50;;;;;;4193097;28;20054;-52
2022/11/18 12:28:50;;;;;;;2.42;2.20;;;14.50;90.30;;;;;;4192392;28;20051;-54
2022/11/18 12:31:35;;;;;;;0.52;0.52;;;14.60;90.20;;;;;;4192111;28;20082;-51
2022/11/18 12:34:38;;;;;;;0.10;0.10;;;14.60;90.10;;;;;;4193392;28;20131;-51
2022/11/18 12:37:46;;;;;;;0.20;0.20;;;14.70;90.00;;;;;;4208618;28;20051;-50
2022/11/18 12:40:42;;;;;;;0.52;0.52;;;14.70;89.80;;;;;;4194853;28;20066;-53
2022/11/18 12:44:00;;;;;;;;;;;14.70;90.20;;;;;;4192533;28;20059;-55
2022/11/18 12:46:51;;;;;;;1.50;1.50;;;14.80;89.60;;;;;;4175371;28;19944;-55
2022/11/18 12:50:09;;;;;;;0.73;0.73;;;14.90;89.40;;;;;;4179498;28;20117;-55
2022/11/18 12:52:54;;;;;;;1.40;1.33;;;14.90;89.40;;;;;;4184468;28;20047;-55
2022/11/18 12:55:38;;;;;;;2.15;2.05;;;15.00;89.20;;;;;;4192209;28;20110;-55
2022/11/18 12:58:24;;;;;;;0.10;0.10;;;15.10;88.90;;;;;;4175552;28;20048;-56
2022/11/18 13:01:08;;;;;;;0.63;0.63;;;15.10;88.60;;;;;;4175491;28;20195;-57
2022/11/18 13:03:51;;;;;;;0.20;0.20;;;15.10;88.50;;;;;;4183866;28;20050;-60
2022/11/18 13:06:34;;;;;;;0.38;0.38;;;15.10;88.40;;;;;;4191909;28;20051;-60
2022/11/18 13:09:18;;;;;;;2.85;2.72;;;15.20;88.20;;;;;;4191324;28;20056;-59
2022/11/18 13:12:03;;;;;;;4.70;4.40;;;15.20;88.40;;;;;;4191491;28;20114;-60
2022/11/18 13:17:53;;;;;;;0.80;0.80;;;15.30;88.80;;;;;;4191378;28;20050;-59
2022/11/18 13:20:37;;;;;;;0.00;0.00;;;15.30;88.70;;;;;;4191352;28;20122;-59
2022/11/18 13:26:29;;;;;;;1.75;1.65;;;15.30;88.40;;;;;;4175188;28;20160;-59
2022/11/18 13:29:27;;;;;;;1.58;1.55;;;15.30;88.10;;;;;;4177421;28;20550;-58
2022/11/18 13:32:20;;;;;;;0.10;0.10;;;15.40;87.90;;;;;;4177857;28;20056;-59
2022/11/18 13:35:11;;;;;;;1.02;1.02;;;15.40;87.70;;;;;;4203222;28;20419;-58
2022/11/18 13:37:56;;;;;;;0.77;0.77;;;15.30;87.60;;;;;;4194638;28;20123;-60
2022/11/18 13:41:02;;;;;;;0.20;0.20;;;15.30;87.50;;;;;;4194583;28;20313;-60
2022/11/18 13:43:43;;;;;;;0.52;0.52;;;15.40;87.60;;;;;;4194671;28;20134;-60
2022/11/18 13:46:25;;;;;;;4.78;3.17;;;15.40;87.30;;;;;;4205058;28;20051;-59
2022/11/18 13:49:06;;;;;;;2.60;2.40;;;15.40;87.30;;;;;;4194740;28;20055;-60
2022/11/18 13:51:47;;;;;;;5.38;3.30;;;15.40;87.00;;;;;;4194539;28;20056;-60
2022/11/18 13:54:30;;;;;;;0.90;0.90;;;15.40;87.00;;;;;;4193632;28;20054;-60
2022/11/18 13:57:19;;;;;;;0.57;0.57;;;15.40;88.10;;;;;;4194595;28;20121;-59
2022/11/18 14:00:05;;;;;;;0.30;0.30;;;15.30;87.40;;;;;;4194325;28;20059;-60
2022/11/18 14:02:53;;;;;;;0.88;0.88;;;15.30;87.60;;;;;;4193970;28;20097;-60
2022/11/18 14:05:34;;;;;;;0.00;0.00;;;15.10;87.80;;;;;;4192953;28;20090;-60
2022/11/18 14:08:26;;;;;;;1.70;1.60;;;15.10;88.10;;;;;;4194116;28;20559;-57
2022/11/18 14:11:10;;;;;;;0.93;0.88;;;15.00;88.40;;;;;;4194095;28;20106;-59
2022/11/18 14:13:53;;;;;;;0.10;0.10;;;15.00;88.30;;;;;;4193828;28;20093;-57
2022/11/18 14:16:36;;;;;;;0.20;0.20;;;15.10;88.10;;;;;;4193896;28;20558;-57
2022/11/18 14:19:30;;;;;;;0.52;0.52;;;15.20;87.90;;;;;;4194090;28;20063;-56
2022/11/18 14:22:16;;;;;;;0.00;0.00;;;15.20;87.70;;;;;;4193690;28;20047;-58
2022/11/18 14:24:59;;;;;;;0.00;0.00;;;15.20;87.70;;;;;;4193967;28;20043;-58
2022/11/18 14:27:43;;;;;;;0.25;0.25;;;15.20;87.60;;;;;;4193072;28;20056;-57
2022/11/18 14:30:33;;;;;;;1.38;1.27;;;15.10;87.80;;;;;;4183722;28;20499;-58
2022/11/18 14:33:23;;;;;;;0.10;0.10;;;15.10;88.00;;;;;;4177547;28;20051;-57
2022/11/18 14:36:11;;;;;;;1.85;1.85;;;15.10;88.20;;;;;;4188021;28;20106;-56
2022/11/18 14:38:54;;;;;;;0.75;0.75;;;15.00;88.40;;;;;;4177640;28;20491;-56
2022/11/18 14:41:56;;;;;;;0.10;0.10;;;14.90;88.60;;;;;;4189308;28;20056;-58
2022/11/18 14:44:38;;;;;;;;;;;14.80;88.90;;;;;;4194317;28;20182;-57